createdAt,value
2022-08-05T00:00:48.379Z,4.30
2022-08-05T00:03:19.203Z,4.10
2022-08-05T00:06:04.714Z,4.70
2022-08-05T00:08:38.284Z,4.50
2022-08-05T00:11:20.715Z,5.77
2022-08-05T00:14:00.826Z,2.90
2022-08-05T00:16:36.365Z,4.30
2022-08-05T00:19:19.373Z,2.67
2022-08-05T00:21:51.069Z,6.23
2022-08-05T00:24:24.822Z,2.87
2022-08-05T00:26:59.592Z,2.83
2022-08-05T00:29:37.633Z,5.70
2022-08-05T00:32:10.483Z,6.03
2022-08-05T00:35:04.446Z,2.73
2022-08-05T00:37:50.384Z,5.13
2022-08-05T00:40:28.056Z,4.17
2022-08-05T00:42:59.487Z,4.07
2022-08-05T00:45:38.930Z,6.60
2022-08-05T00:48:14.115Z,4.20
2022-08-05T00:50:46.019Z,3.80
2022-08-05T00:54:00.207Z,4.77
2022-08-05T00:56:07.827Z,3.03
2022-08-05T00:58:37.204Z,3.13
2022-08-05T01:01:08.742Z,5.27
2022-08-05T01:03:37.688Z,4.97
2022-08-05T01:06:06.321Z,2.50
2022-08-05T01:08:44.100Z,3.60
2022-08-05T01:11:22.133Z,3.43
2022-08-05T01:14:04.103Z,3.90
2022-08-05T01:16:50.092Z,4.77
2022-08-05T01:20:00.829Z,3.47
2022-08-05T01:22:42.800Z,3.03
2022-08-05T01:25:53.774Z,5.47
2022-08-05T01:28:37.878Z,5.00
2022-08-05T01:31:17.677Z,3.47
2022-08-05T01:33:58.127Z,3.97
2022-08-05T01:36:35.018Z,5.00
2022-08-05T01:39:12.804Z,4.03
2022-08-05T01:41:44.380Z,3.97
2022-08-05T01:44:16.278Z,5.13
2022-08-05T01:46:46.823Z,5.03
2022-08-05T01:49:24.182Z,3.90
2022-08-05T01:52:01.898Z,4.47
2022-08-05T01:54:52.916Z,6.57
2022-08-05T01:58:11.959Z,5.73
2022-08-05T02:00:19.760Z,4.37
2022-08-05T02:02:58.047Z,5.87
2022-08-05T02:05:35.826Z,8.23
2022-08-05T02:08:06.676Z,8.17
2022-08-05T02:10:44.397Z,10.87
2022-08-05T02:13:19.744Z,7.23
2022-08-05T02:16:02.433Z,8.37
2022-08-05T02:18:42.210Z,7.63
2022-08-05T02:21:17.185Z,7.60
2022-08-05T02:23:53.245Z,9.50
2022-08-05T02:26:39.139Z,8.23
2022-08-05T02:29:58.920Z,11.57
2022-08-05T02:32:24.121Z,9.47
2022-08-05T02:35:13.359Z,8.30
2022-08-05T02:37:47.669Z,8.70
2022-08-05T02:40:18.541Z,9.33
2022-08-05T02:42:52.819Z,8.63
2022-08-05T02:45:25.297Z,7.90
2022-08-05T02:48:09.972Z,12.77
2022-08-05T02:50:46.583Z,10.40
2022-08-05T02:53:19.314Z,10.10
2022-08-05T02:55:59.704Z,10.87
2022-08-05T02:58:30.542Z,14.90
2022-08-05T03:01:03.797Z,16.90
2022-08-05T03:04:02.953Z,15.53
2022-08-05T03:06:53.761Z,12.43
2022-08-05T03:09:17.691Z,13.03
2022-08-05T03:11:57.092Z,14.93
2022-08-05T03:14:26.713Z,12.57
2022-08-05T03:16:55.515Z,10.40
2022-08-05T03:19:33.266Z,10.33
2022-08-05T03:22:04.687Z,11.90
2022-08-05T03:24:34.283Z,13.37
2022-08-05T03:27:03.761Z,14.97
2022-08-05T03:29:45.566Z,11.07
2022-08-05T03:32:30.894Z,12.17
2022-08-05T03:35:01.514Z,12.87
2022-08-05T03:37:46.427Z,13.13
2022-08-05T03:40:24.589Z,10.20
2022-08-05T03:43:15.819Z,8.60
2022-08-05T03:45:57.931Z,9.40
2022-08-05T03:48:29.008Z,10.10
2022-08-05T03:52:35.465Z,9.70
2022-08-05T03:55:51.628Z,5.63
2022-08-05T03:56:53.561Z,7.17
2022-08-05T03:59:47.393Z,5.73
2022-08-05T04:02:38.469Z,10.07
2022-08-05T04:05:10.999Z,4.50
2022-08-05T04:07:57.324Z,5.33
2022-08-05T04:10:31.999Z,8.50
2022-08-05T04:13:08.188Z,5.80
2022-08-05T04:15:37.449Z,4.93
2022-08-05T04:18:09.833Z,4.77
2022-08-05T04:20:41.096Z,5.17
2022-08-05T04:23:12.369Z,5.80
2022-08-05T04:25:57.652Z,6.13
2022-08-05T04:28:30.867Z,5.83
2022-08-05T04:31:01.644Z,4.60
2022-08-05T04:34:17.594Z,4.73
2022-08-05T04:36:46.589Z,6.13
2022-08-05T04:39:14.508Z,9.10
2022-08-05T04:41:42.816Z,6.67
2022-08-05T04:44:12.705Z,8.23
2022-08-05T04:46:41.199Z,6.90
2022-08-05T04:49:15.303Z,7.17
2022-08-05T04:51:44.953Z,5.53
2022-08-05T04:54:15.022Z,7.63
2022-08-05T04:56:43.854Z,6.20
2022-08-05T04:59:22.373Z,8.50
2022-08-05T05:02:07.011Z,7.00
2022-08-05T05:04:50.607Z,7.03
2022-08-05T05:07:23.859Z,6.73
2022-08-05T05:09:59.423Z,6.63
2022-08-05T05:12:30.972Z,8.63
2022-08-05T05:14:59.831Z,9.17
2022-08-05T05:17:57.019Z,6.27
2022-08-05T05:20:28.461Z,10.47
2022-08-05T05:22:57.628Z,9.07
2022-08-05T05:25:32.658Z,6.97
2022-08-05T05:28:09.468Z,7.60
2022-08-05T05:30:38.352Z,7.57
2022-08-05T05:33:17.005Z,6.77
2022-08-05T05:35:47.732Z,7.33
2022-08-05T05:38:22.592Z,8.70
2022-08-05T05:40:57.524Z,8.63
2022-08-05T05:43:53.986Z,11.20
2022-08-05T05:46:15.861Z,8.67
2022-08-05T05:48:45.959Z,9.70
2022-08-05T05:51:21.107Z,12.23
2022-08-05T05:53:57.149Z,8.60
2022-08-05T05:56:32.307Z,8.03
2022-08-05T05:59:05.280Z,9.27
2022-08-05T06:01:37.980Z,9.97
2022-08-05T06:04:12.217Z,8.10
2022-08-05T06:06:47.477Z,8.53
2022-08-05T06:09:26.504Z,8.50
2022-08-05T06:12:09.581Z,10.43
2022-08-05T06:14:40.246Z,7.40
2022-08-05T06:17:22.560Z,6.93
2022-08-05T06:19:56.324Z,8.93
2022-08-05T06:22:30.801Z,9.13
2022-08-05T06:25:59.016Z,11.03
2022-08-05T06:28:11.369Z,10.30
2022-08-05T06:30:41.325Z,8.83
2022-08-05T06:33:10.672Z,7.40
2022-08-05T06:36:07.270Z,7.53
2022-08-05T06:38:36.449Z,8.37
2022-08-05T06:41:07.893Z,8.00
2022-08-05T06:43:57.605Z,6.93
2022-08-05T06:46:30.185Z,9.93
2022-08-05T06:49:01.097Z,9.97
2022-08-05T06:51:31.447Z,11.17
2022-08-05T06:54:02.175Z,7.67
2022-08-05T06:56:34.818Z,10.70
2022-08-05T06:59:09.639Z,12.80
2022-08-05T07:01:40.827Z,8.77
2022-08-05T07:04:13.932Z,9.50
2022-08-05T07:06:42.819Z,8.60
2022-08-05T07:09:11.198Z,7.97
2022-08-05T07:11:40.127Z,6.93
2022-08-05T07:14:29.419Z,9.70
2022-08-05T07:18:00.894Z,9.20
2022-08-05T07:22:42.468Z,11.30
2022-08-05T07:25:54.504Z,10.10
2022-08-05T07:28:05.721Z,11.57
2022-08-05T07:30:39.918Z,14.57
2022-08-05T07:33:15.980Z,14.00
2022-08-05T07:36:03.518Z,10.53
2022-08-05T07:38:42.916Z,14.73
2022-08-05T07:42:08.289Z,21.33
2022-08-05T07:44:12.126Z,9.63
2022-08-05T07:46:47.417Z,9.93
2022-08-05T07:49:18.552Z,6.67
2022-08-05T07:51:53.817Z,8.33
2022-08-05T07:54:31.465Z,5.97
2022-08-05T07:57:17.765Z,5.07
2022-08-05T07:59:52.052Z,4.50
2022-08-05T08:02:30.854Z,4.67
2022-08-05T08:05:01.050Z,7.00
2022-08-05T08:07:39.757Z,6.00
2022-08-05T08:10:20.533Z,6.43
2022-08-05T08:12:50.053Z,5.17
2022-08-05T08:16:33.968Z,5.97
2022-08-05T08:18:13.786Z,5.03
2022-08-05T08:21:02.981Z,5.33
2022-08-05T08:24:01.192Z,7.20
2022-08-05T08:26:26.723Z,6.17
2022-08-05T08:29:21.586Z,5.57
2022-08-05T08:31:51.103Z,6.53
2022-08-05T08:34:30.614Z,6.27
2022-08-05T08:37:03.159Z,5.90
2022-08-05T08:39:37.579Z,4.90
2022-08-05T08:42:33.911Z,6.30
2022-08-05T08:45:18.432Z,5.97
2022-08-05T08:48:13.054Z,4.70
2022-08-05T08:51:21.968Z,5.77
2022-08-05T08:53:44.485Z,4.77
2022-08-05T08:56:14.189Z,5.97
2022-08-05T08:58:44.471Z,5.30
2022-08-05T09:01:18.199Z,4.97
2022-08-05T09:03:54.507Z,5.30
2022-08-05T09:06:29.711Z,5.63
2022-08-05T09:09:01.872Z,5.70
2022-08-05T09:11:52.649Z,5.57
2022-08-05T09:14:59.092Z,6.03
2022-08-05T09:17:16.148Z,5.93
2022-08-05T09:20:04.806Z,6.57
2022-08-05T09:23:09.361Z,6.00
2022-08-05T09:26:00.012Z,7.20
2022-08-05T09:28:32.234Z,9.97
2022-08-05T09:31:43.710Z,7.70
2022-08-05T09:33:59.540Z,8.20
2022-08-05T09:36:45.700Z,5.87
2022-08-05T09:39:41.131Z,5.97
2022-08-05T09:42:23.008Z,7.67
2022-08-05T09:44:56.446Z,6.53
2022-08-05T09:47:49.096Z,6.50
2022-08-05T09:50:38.200Z,8.23
2022-08-05T09:53:12.058Z,8.87
2022-08-05T09:56:03.907Z,8.77
2022-08-05T09:58:33.865Z,7.57
2022-08-05T10:01:13.456Z,8.00
2022-08-05T10:04:00.097Z,7.80
2022-08-05T10:06:31.124Z,7.90
2022-08-05T10:09:27.667Z,9.20
2022-08-05T10:12:18.581Z,8.23
2022-08-05T10:15:20.131Z,8.50
2022-08-05T10:18:16.647Z,9.50
2022-08-05T10:20:49.075Z,9.77
2022-08-05T10:23:34.387Z,8.47
2022-08-05T10:26:14.565Z,8.70
2022-08-05T10:28:47.243Z,9.40
2022-08-05T10:32:50.555Z,7.93
2022-08-05T10:34:08.077Z,9.27
2022-08-05T10:36:38.168Z,8.90
2022-08-05T10:39:24.161Z,8.33
2022-08-05T10:42:03.051Z,5.90
2022-08-05T10:44:34.074Z,7.83
2022-08-05T10:47:26.299Z,6.47
2022-08-05T10:50:32.965Z,6.17
2022-08-05T10:52:58.804Z,6.40
2022-08-05T10:55:30.322Z,7.27
2022-08-05T10:58:15.623Z,5.67
2022-08-05T11:00:55.043Z,5.70
2022-08-05T11:03:29.655Z,4.80
2022-08-05T11:06:15.513Z,5.63
2022-08-05T11:09:24.240Z,3.97
2022-08-05T11:12:54.490Z,4.53
2022-08-05T11:16:00.623Z,7.40
2022-08-05T11:18:30.238Z,4.77
2022-08-05T11:21:02.635Z,4.77
2022-08-05T11:24:02.733Z,5.90
2022-08-05T11:26:29.287Z,6.07
2022-08-05T11:29:13.301Z,9.00
2022-08-05T11:31:56.766Z,6.83
2022-08-05T11:34:47.647Z,6.10
2022-08-05T11:38:29.156Z,7.13
2022-08-05T11:41:34.206Z,8.17
2022-08-05T11:44:04.551Z,12.53
2022-08-05T11:47:09.197Z,12.53
2022-08-05T11:49:28.118Z,12.60
2022-08-05T11:51:57.649Z,12.93
2022-08-05T11:54:33.194Z,11.87
2022-08-05T11:57:07.925Z,11.53
2022-08-05T11:59:50.055Z,13.27
2022-08-05T12:02:32.057Z,15.30
2022-08-05T12:05:08.061Z,16.13
2022-08-05T12:08:07.527Z,17.10
2022-08-05T12:10:45.815Z,14.57
2022-08-05T12:13:47.317Z,17.90
2022-08-05T12:16:15.287Z,18.43
2022-08-05T12:18:52.105Z,18.57
2022-08-05T12:21:26.648Z,19.77
2022-08-05T12:24:05.185Z,20.33
2022-08-05T12:26:38.590Z,20.83
2022-08-05T12:29:11.946Z,22.50
2022-08-05T12:31:53.398Z,23.13
2022-08-05T12:34:28.389Z,22.37
2022-08-05T12:36:58.814Z,21.93
2022-08-05T12:39:37.166Z,21.57
2022-08-05T12:42:14.656Z,20.83
2022-08-05T12:44:45.869Z,22.30
2022-08-05T12:47:30.634Z,25.13
2022-08-05T12:50:13.465Z,28.60
2022-08-05T12:52:42.893Z,30.03
2022-08-05T12:55:22.148Z,31.70
2022-08-05T12:58:52.339Z,35.33
2022-08-05T13:02:04.263Z,34.27
2022-08-05T13:03:42.329Z,32.87
2022-08-05T13:06:19.573Z,32.03
2022-08-05T13:08:52.386Z,29.73
2022-08-05T13:11:53.816Z,25.43
2022-08-05T13:14:24.732Z,25.50
2022-08-05T13:17:09.919Z,19.73
2022-08-05T13:19:50.975Z,17.73
2022-08-05T13:22:28.048Z,19.33
2022-08-05T13:25:05.795Z,21.00
2022-08-05T13:27:39.730Z,19.97
2022-08-05T13:30:35.799Z,21.93
2022-08-05T13:33:00.938Z,24.67
2022-08-05T13:35:42.898Z,23.03
2022-08-05T13:38:30.610Z,24.97
2022-08-05T13:41:02.717Z,19.80
2022-08-05T13:43:45.377Z,21.83
2022-08-05T13:46:37.624Z,16.47
2022-08-05T13:49:10.502Z,18.87
2022-08-05T13:51:46.305Z,16.13
2022-08-05T13:54:21.261Z,14.97
2022-08-05T13:56:54.413Z,10.63
2022-08-05T13:59:27.478Z,9.77
2022-08-05T14:02:00.957Z,8.03
2022-08-05T14:04:51.172Z,8.47
2022-08-05T14:07:26.257Z,9.70
2022-08-05T14:10:18.938Z,5.37
2022-08-05T14:12:57.145Z,6.03
2022-08-05T14:16:09.006Z,9.83
2022-08-05T14:18:18.364Z,7.20
2022-08-05T14:20:54.349Z,6.20
2022-08-05T14:23:26.215Z,6.33
2022-08-05T14:25:59.319Z,5.17
2022-08-05T14:28:28.817Z,6.73
2022-08-05T14:30:57.885Z,6.07
2022-08-05T14:33:26.883Z,5.90
2022-08-05T14:35:55.318Z,10.10
2022-08-05T14:38:33.152Z,4.10
2022-08-05T14:41:07.740Z,5.23
2022-08-05T14:43:39.173Z,4.20
2022-08-05T14:46:29.822Z,4.07
2022-08-05T14:49:06.419Z,4.70
2022-08-05T14:51:38.001Z,6.10
2022-08-05T14:54:27.548Z,3.63
2022-08-05T14:56:57.480Z,3.73
2022-08-05T14:59:29.387Z,5.10
2022-08-05T15:02:25.123Z,4.40
2022-08-05T15:04:53.229Z,3.80
2022-08-05T15:08:06.154Z,4.03
2022-08-05T15:10:10.516Z,5.60
2022-08-05T15:12:59.778Z,4.60
2022-08-05T15:15:54.943Z,6.83
2022-08-05T15:18:19.284Z,5.97
2022-08-05T15:20:48.559Z,6.20
2022-08-05T15:23:17.883Z,8.13
2022-08-05T15:25:52.375Z,7.40
2022-08-05T15:28:27.048Z,5.53
2022-08-05T15:30:57.145Z,6.47
2022-08-05T15:34:18.468Z,5.57
2022-08-05T15:36:17.249Z,4.93
2022-08-05T15:40:41.335Z,4.47
2022-08-05T15:41:56.444Z,4.40
2022-08-05T15:44:30.436Z,4.47
2022-08-05T15:47:02.086Z,4.00
2022-08-05T15:49:48.162Z,3.67
2022-08-05T15:52:29.687Z,4.90
2022-08-05T15:55:16.230Z,3.30
2022-08-05T15:57:45.954Z,2.97
2022-08-05T16:00:30.460Z,2.97
2022-08-05T16:03:08.016Z,2.77
2022-08-05T16:05:38.894Z,3.90
2022-08-05T16:08:07.471Z,3.30
2022-08-05T16:10:36.499Z,3.53
2022-08-05T16:13:04.830Z,3.83
2022-08-05T16:15:35.280Z,3.53
2022-08-05T16:18:04.387Z,6.63
2022-08-05T16:20:37.633Z,3.13
2022-08-05T16:23:08.506Z,3.70
2022-08-05T16:25:38.302Z,3.40
2022-08-05T16:28:09.773Z,5.47
2022-08-05T16:30:41.595Z,3.53
2022-08-05T16:33:10.174Z,3.10
2022-08-05T16:35:42.271Z,3.43
2022-08-05T16:38:14.931Z,4.83
2022-08-05T16:40:52.155Z,2.63
2022-08-05T16:43:31.811Z,2.63
2022-08-05T16:46:23.546Z,3.27
2022-08-05T16:48:52.849Z,2.97
2022-08-05T16:51:21.642Z,5.23
2022-08-05T16:54:03.947Z,3.57
2022-08-05T16:56:41.804Z,3.93
2022-08-05T16:59:11.904Z,3.10
2022-08-05T17:01:54.478Z,2.40
2022-08-05T17:04:27.201Z,3.13
2022-08-05T17:07:00.928Z,3.13
2022-08-05T17:09:57.647Z,2.97
2022-08-05T17:12:22.614Z,2.57
2022-08-05T17:15:09.427Z,4.20
2022-08-05T17:18:02.204Z,3.23
2022-08-05T17:20:28.272Z,2.60
2022-08-05T17:22:57.446Z,2.77
2022-08-05T17:25:39.533Z,2.03
2022-08-05T17:28:09.329Z,2.30
2022-08-05T17:30:50.780Z,2.40
2022-08-05T17:33:23.143Z,2.97
2022-08-05T17:36:09.014Z,5.63
2022-08-05T17:38:40.467Z,2.60
2022-08-05T17:41:22.652Z,2.87
2022-08-05T17:43:58.417Z,1.90
2022-08-05T17:46:27.307Z,2.40
2022-08-05T17:48:57.033Z,3.30
2022-08-05T17:51:26.756Z,6.07
2022-08-05T17:53:55.093Z,2.63
2022-08-05T17:56:23.535Z,2.30
2022-08-05T17:58:56.980Z,3.47
2022-08-05T18:01:25.659Z,2.63
2022-08-05T18:04:04.076Z,2.97
2022-08-05T18:06:34.571Z,2.37
2022-08-05T18:09:03.594Z,2.73
2022-08-05T18:11:33.751Z,4.50
2022-08-05T18:14:06.746Z,2.30
2022-08-05T18:16:51.374Z,2.97
2022-08-05T18:19:25.970Z,2.77
2022-08-05T18:22:09.617Z,3.73
2022-08-05T18:24:40.580Z,2.27
2022-08-05T18:27:18.229Z,3.30
2022-08-05T18:29:53.720Z,3.83
2022-08-05T18:32:28.158Z,2.97
2022-08-05T18:34:59.255Z,2.83
2022-08-05T18:37:34.416Z,4.23
2022-08-05T18:40:34.315Z,3.00
2022-08-05T18:42:59.284Z,3.37
2022-08-05T18:45:41.202Z,3.50
2022-08-05T18:48:11.366Z,4.00
2022-08-05T18:52:02.776Z,4.50
2022-08-05T18:53:50.514Z,4.83
2022-08-05T18:56:21.675Z,3.57
2022-08-05T18:58:54.849Z,3.37
2022-08-05T19:01:47.171Z,4.57
2022-08-05T19:04:24.355Z,3.03
2022-08-05T19:06:56.607Z,4.20
2022-08-05T19:09:25.001Z,3.40
2022-08-05T19:11:59.470Z,3.83
2022-08-05T19:14:44.673Z,3.87
2022-08-05T19:17:19.452Z,3.03
2022-08-05T19:19:48.646Z,3.60
2022-08-05T19:22:18.742Z,3.23
2022-08-05T19:24:54.518Z,4.67
2022-08-05T19:27:28.031Z,4.33
2022-08-05T19:30:01.100Z,3.43
2022-08-05T19:32:31.256Z,2.90
2022-08-05T19:34:59.640Z,3.43
2022-08-05T19:37:47.332Z,6.03
2022-08-05T19:40:24.696Z,3.67
2022-08-05T19:43:05.513Z,2.43
2022-08-05T19:45:36.949Z,3.17
2022-08-05T19:48:06.715Z,4.67
2022-08-05T19:50:43.476Z,2.80
2022-08-05T19:53:13.487Z,3.20
2022-08-05T19:56:12.556Z,3.10
2022-08-05T19:58:31.284Z,3.37
2022-08-05T20:01:27.192Z,6.30
2022-08-05T20:03:57.335Z,3.40
2022-08-05T20:06:28.990Z,3.77
2022-08-05T20:09:04.760Z,5.67
2022-08-05T20:11:42.206Z,3.53
2022-08-05T20:14:23.537Z,3.67
2022-08-05T20:16:55.840Z,2.67
2022-08-05T20:19:25.042Z,4.47
2022-08-05T20:22:04.444Z,2.93
2022-08-05T20:24:34.528Z,2.60
2022-08-05T20:27:03.522Z,2.90
2022-08-05T20:29:39.774Z,3.93
2022-08-05T20:32:08.730Z,4.70
2022-08-05T20:34:39.222Z,2.63
2022-08-05T20:37:24.106Z,2.00
2022-08-05T20:39:59.523Z,4.27
2022-08-05T20:42:28.303Z,2.03
2022-08-05T20:44:56.615Z,1.83
2022-08-05T20:47:31.705Z,3.20
2022-08-05T20:50:02.058Z,1.93
2022-08-05T20:52:32.368Z,1.70
2022-08-05T20:56:07.324Z,2.10
2022-08-05T20:57:50.677Z,1.20
2022-08-05T21:00:51.778Z,1.40
2022-08-05T21:03:08.894Z,3.97
2022-08-05T21:05:53.999Z,1.03
2022-08-05T21:08:26.690Z,0.73
2022-08-05T21:11:12.555Z,2.53
2022-08-05T21:13:55.791Z,0.93
2022-08-05T21:16:30.203Z,1.70
2022-08-05T21:19:00.866Z,2.53
2022-08-05T21:21:44.131Z,1.37
2022-08-05T21:24:20.009Z,1.40
2022-08-05T21:26:58.485Z,1.70
2022-08-05T21:29:32.078Z,0.97
2022-08-05T21:32:02.780Z,1.37
2022-08-05T21:34:31.600Z,2.77
2022-08-05T21:37:01.638Z,3.47
2022-08-05T21:39:30.338Z,4.70
2022-08-05T21:42:05.282Z,1.40
2022-08-05T21:44:33.635Z,1.80
2022-08-05T21:47:02.479Z,1.23
2022-08-05T21:49:58.932Z,1.67
2022-08-05T21:52:26.749Z,0.73
2022-08-05T21:54:57.181Z,0.70
2022-08-05T21:57:31.633Z,1.63
2022-08-05T22:00:06.387Z,0.90
2022-08-05T22:02:42.687Z,0.57
2022-08-05T22:05:12.802Z,0.93
2022-08-05T22:07:58.939Z,1.00
2022-08-05T22:10:29.214Z,1.73
2022-08-05T22:13:08.582Z,1.57
2022-08-05T22:16:00.341Z,1.90
2022-08-05T22:18:26.286Z,1.53
2022-08-05T22:20:55.770Z,2.10
2022-08-05T22:24:03.007Z,3.53
2022-08-05T22:26:50.952Z,2.10
2022-08-05T22:29:26.872Z,0.90
2022-08-05T22:31:59.480Z,1.30
2022-08-05T22:34:31.349Z,1.70
2022-08-05T22:37:01.120Z,1.80
2022-08-05T22:39:34.370Z,2.80
2022-08-05T22:42:12.073Z,3.10
2022-08-05T22:44:53.823Z,0.80
2022-08-05T22:47:29.326Z,2.10
2022-08-05T22:50:20.635Z,2.60
2022-08-05T22:52:51.255Z,2.63
2022-08-05T22:55:21.446Z,0.87
2022-08-05T22:57:51.241Z,1.53
2022-08-05T23:00:23.403Z,2.10
2022-08-05T23:02:53.322Z,4.73
2022-08-05T23:05:24.190Z,1.40
2022-08-05T23:07:53.041Z,1.83
2022-08-05T23:10:23.989Z,1.90
2022-08-05T23:12:55.794Z,1.47
2022-08-05T23:15:30.013Z,0.97
2022-08-05T23:18:06.135Z,2.63
2022-08-05T23:20:40.125Z,2.37
2022-08-05T23:23:11.636Z,1.53
2022-08-05T23:25:51.132Z,2.87
2022-08-05T23:28:29.005Z,0.93
2022-08-05T23:31:15.822Z,2.33
2022-08-05T23:34:05.175Z,2.37
2022-08-05T23:36:38.765Z,2.00
2022-08-05T23:39:09.992Z,1.40
2022-08-05T23:41:48.783Z,1.13
2022-08-05T23:44:17.425Z,1.60
2022-08-05T23:46:49.691Z,1.67
2022-08-05T23:49:22.300Z,2.17
2022-08-05T23:52:11.213Z,1.83
2022-08-05T23:54:39.971Z,2.43
2022-08-05T23:57:10.253Z,1.20
